sensor_id;sensor_type;location;lat;lon;timestamp;P1;durP1;ratioP1;P2;durP2;ratioP2
22673;SDS011;11504;43.334;21.918;2023-10-13T00:02:43;17.0;;;16.0;;
22673;SDS011;11504;43.334;21.918;2023-10-13T00:07:20;17.0;;;16.0;;
22673;SDS011;11504;43.334;21.918;2023-10-13T00:11:57;17.0;;;16.0;;
22673;SDS011;11504;43.334;21.918;2023-10-13T00:16:35;17.0;;;16.0;;
22673;SDS011;11504;43.334;21.918;2023-10-13T00:21:14;17.0;;;16.0;;
22673;SDS011;11504;43.334;21.918;2023-10-13T00:25:53;15.0;;;14.0;;
22673;SDS011;11504;43.334;21.918;2023-10-13T00:30:30;15.0;;;14.0;;
22673;SDS011;11504;43.334;21.918;2023-10-13T00:35:07;13.0;;;12.0;;
22673;SDS011;11504;43.334;21.918;2023-10-13T00:39:45;13.0;;;12.0;;
22673;SDS011;11504;43.334;21.918;2023-10-13T00:44:22;12.0;;;12.0;;
22673;SDS011;11504;43.334;21.918;2023-10-13T00:48:59;12.0;;;12.0;;
22673;SDS011;11504;43.334;21.918;2023-10-13T00:53:42;12.0;;;12.0;;
22673;SDS011;11504;43.334;21.918;2023-10-13T00:58:20;12.0;;;12.0;;
22673;SDS011;11504;43.334;21.918;2023-10-13T01:03:00;12.0;;;12.0;;
22673;SDS011;11504;43.334;21.918;2023-10-13T01:07:37;14.0;;;14.0;;
22673;SDS011;11504;43.334;21.918;2023-10-13T01:12:14;14.0;;;14.0;;
22673;SDS011;11504;43.334;21.918;2023-10-13T01:16:51;16.0;;;15.0;;
22673;SDS011;11504;43.334;21.918;2023-10-13T01:21:27;16.0;;;15.0;;
22673;SDS011;11504;43.334;21.918;2023-10-13T01:26:04;16.0;;;14.0;;
22673;SDS011;11504;43.334;21.918;2023-10-13T01:30:40;16.0;;;14.0;;
22673;SDS011;11504;43.334;21.918;2023-10-13T01:35:17;15.0;;;14.0;;
22673;SDS011;11504;43.334;21.918;2023-10-13T01:39:54;15.0;;;14.0;;
22673;SDS011;11504;43.334;21.918;2023-10-13T01:44:30;16.0;;;14.0;;
22673;SDS011;11504;43.334;21.918;2023-10-13T01:49:07;16.0;;;14.0;;
22673;SDS011;11504;43.334;21.918;2023-10-13T01:53:43;16.0;;;15.0;;
22673;SDS011;11504;43.334;21.918;2023-10-13T01:58:19;16.0;;;15.0;;
22673;SDS011;11504;43.334;21.918;2023-10-13T02:02:55;16.0;;;15.0;;
22673;SDS011;11504;43.334;21.918;2023-10-13T02:07:31;16.0;;;16.0;;
22673;SDS011;11504;43.334;21.918;2023-10-13T02:12:08;16.0;;;16.0;;
22673;SDS011;11504;43.334;21.918;2023-10-13T02:16:45;17.0;;;16.0;;
22673;SDS011;11504;43.334;21.918;2023-10-13T02:21:22;17.0;;;16.0;;
22673;SDS011;11504;43.334;21.918;2023-10-13T02:25:59;16.0;;;15.0;;
22673;SDS011;11504;43.334;21.918;2023-10-13T02:30:38;16.0;;;15.0;;
22673;SDS011;11504;43.334;21.918;2023-10-13T02:35:18;15.0;;;14.0;;
22673;SDS011;11504;43.334;21.918;2023-10-13T02:39:55;15.0;;;14.0;;
22673;SDS011;11504;43.334;21.918;2023-10-13T02:44:32;15.0;;;14.0;;
22673;SDS011;11504;43.334;21.918;2023-10-13T02:49:10;15.0;;;14.0;;
22673;SDS011;11504;43.334;21.918;2023-10-13T02:53:47;15.0;;;14.0;;
22673;SDS011;11504;43.334;21.918;2023-10-13T02:58:24;15.0;;;14.0;;
22673;SDS011;11504;43.334;21.918;2023-10-13T03:03:01;15.0;;;14.0;;
22673;SDS011;11504;43.334;21.918;2023-10-13T03:07:39;14.0;;;14.0;;
22673;SDS011;11504;43.334;21.918;2023-10-13T03:12:17;14.0;;;14.0;;
22673;SDS011;11504;43.334;21.918;2023-10-13T03:16:56;14.0;;;13.0;;
22673;SDS011;11504;43.334;21.918;2023-10-13T03:21:38;14.0;;;13.0;;
22673;SDS011;11504;43.334;21.918;2023-10-13T03:26:14;14.0;;;12.0;;
22673;SDS011;11504;43.334;21.918;2023-10-13T03:30:51;14.0;;;12.0;;
22673;SDS011;11504;43.334;21.918;2023-10-13T03:35:27;13.0;;;12.0;;
22673;SDS011;11504;43.334;21.918;2023-10-13T03:40:06;13.0;;;12.0;;
22673;SDS011;11504;43.334;21.918;2023-10-13T03:44:49;16.0;;;14.0;;
22673;SDS011;11504;43.334;21.918;2023-10-13T03:49:25;16.0;;;14.0;;
22673;SDS011;11504;43.334;21.918;2023-10-13T03:54:02;18.0;;;17.0;;
22673;SDS011;11504;43.334;21.918;2023-10-13T03:58:41;18.0;;;17.0;;
22673;SDS011;11504;43.334;21.918;2023-10-13T04:03:18;18.0;;;17.0;;
22673;SDS011;11504;43.334;21.918;2023-10-13T04:07:54;16.0;;;15.0;;
22673;SDS011;11504;43.334;21.918;2023-10-13T04:12:37;16.0;;;15.0;;
22673;SDS011;11504;43.334;21.918;2023-10-13T04:17:14;13.0;;;13.0;;
22673;SDS011;11504;43.334;21.918;2023-10-13T04:21:52;13.0;;;13.0;;
22673;SDS011;11504;43.334;21.918;2023-10-13T04:26:28;14.0;;;14.0;;
22673;SDS011;11504;43.334;21.918;2023-10-13T04:31:04;14.0;;;14.0;;
22673;SDS011;11504;43.334;21.918;2023-10-13T04:35:41;15.0;;;14.0;;
22673;SDS011;11504;43.334;21.918;2023-10-13T04:40:17;15.0;;;14.0;;
22673;SDS011;11504;43.334;21.918;2023-10-13T04:44:56;14.0;;;14.0;;
22673;SDS011;11504;43.334;21.918;2023-10-13T04:49:33;14.0;;;14.0;;
22673;SDS011;11504;43.334;21.918;2023-10-13T04:54:16;14.0;;;14.0;;
22673;SDS011;11504;43.334;21.918;2023-10-13T04:58:52;14.0;;;14.0;;
22673;SDS011;11504;43.334;21.918;2023-10-13T05:03:29;15.0;;;15.0;;
22673;SDS011;11504;43.334;21.918;2023-10-13T05:08:05;15.0;;;15.0;;
22673;SDS011;11504;43.334;21.918;2023-10-13T05:12:42;15.0;;;15.0;;
22673;SDS011;11504;43.334;21.918;2023-10-13T05:17:19;16.0;;;16.0;;
22673;SDS011;11504;43.334;21.918;2023-10-13T05:21:56;16.0;;;16.0;;
22673;SDS011;11504;43.334;21.918;2023-10-13T05:26:32;16.0;;;16.0;;
22673;SDS011;11504;43.334;21.918;2023-10-13T05:31:09;16.0;;;16.0;;
22673;SDS011;11504;43.334;21.918;2023-10-13T05:35:46;16.0;;;15.0;;
22673;SDS011;11504;43.334;21.918;2023-10-13T05:40:23;16.0;;;15.0;;
22673;SDS011;11504;43.334;21.918;2023-10-13T05:45:00;16.0;;;15.0;;
22673;SDS011;11504;43.334;21.918;2023-10-13T05:49:36;16.0;;;15.0;;
22673;SDS011;11504;43.334;21.918;2023-10-13T05:54:13;15.0;;;15.0;;
22673;SDS011;11504;43.334;21.918;2023-10-13T05:58:50;15.0;;;15.0;;
22673;SDS011;11504;43.334;21.918;2023-10-13T06:03:27;14.0;;;14.0;;
22673;SDS011;11504;43.334;21.918;2023-10-13T06:08:03;14.0;;;14.0;;
22673;SDS011;11504;43.334;21.918;2023-10-13T06:12:41;14.0;;;14.0;;
22673;SDS011;11504;43.334;21.918;2023-10-13T06:17:17;14.0;;;13.0;;
22673;SDS011;11504;43.334;21.918;2023-10-13T06:21:54;14.0;;;13.0;;
22673;SDS011;11504;43.334;21.918;2023-10-13T06:26:30;14.0;;;12.0;;
22673;SDS011;11504;43.334;21.918;2023-10-13T06:31:07;14.0;;;12.0;;
22673;SDS011;11504;43.334;21.918;2023-10-13T06:35:49;14.0;;;12.0;;
22673;SDS011;11504;43.334;21.918;2023-10-13T06:40:26;14.0;;;12.0;;
22673;SDS011;11504;43.334;21.918;2023-10-13T06:45:02;15.0;;;14.0;;
22673;SDS011;11504;43.334;21.918;2023-10-13T06:49:43;15.0;;;14.0;;
22673;SDS011;11504;43.334;21.918;2023-10-13T06:54:19;16.0;;;15.0;;
22673;SDS011;11504;43.334;21.918;2023-10-13T06:58:56;16.0;;;15.0;;
22673;SDS011;11504;43.334;21.918;2023-10-13T07:03:33;16.0;;;14.0;;
22673;SDS011;11504;43.334;21.918;2023-10-13T07:08:09;16.0;;;14.0;;
22673;SDS011;11504;43.334;21.918;2023-10-13T07:12:47;16.0;;;14.0;;
22673;SDS011;11504;43.334;21.918;2023-10-13T07:17:23;15.0;;;14.0;;
22673;SDS011;11504;43.334;21.918;2023-10-13T07:22:00;15.0;;;14.0;;
22673;SDS011;11504;43.334;21.918;2023-10-13T07:26:38;14.0;;;13.0;;
22673;SDS011;11504;43.334;21.918;2023-10-13T07:31:14;14.0;;;13.0;;
22673;SDS011;11504;43.334;21.918;2023-10-13T07:35:59;12.0;;;12.0;;
22673;SDS011;11504;43.334;21.918;2023-10-13T07:40:43;12.0;;;12.0;;
22673;SDS011;11504;43.334;21.918;2023-10-13T07:45:20;13.0;;;12.0;;
22673;SDS011;11504;43.334;21.918;2023-10-13T07:49:57;13.0;;;12.0;;
22673;SDS011;11504;43.334;21.918;2023-10-13T07:54:33;14.0;;;13.0;;
22673;SDS011;11504;43.334;21.918;2023-10-13T07:59:10;14.0;;;13.0;;
22673;SDS011;11504;43.334;21.918;2023-10-13T08:03:46;13.0;;;12.0;;
22673;SDS011;11504;43.334;21.918;2023-10-13T08:08:24;13.0;;;12.0;;
22673;SDS011;11504;43.334;21.918;2023-10-13T08:13:02;13.0;;;12.0;;
22673;SDS011;11504;43.334;21.918;2023-10-13T08:17:39;12.0;;;11.0;;
22673;SDS011;11504;43.334;21.918;2023-10-13T08:22:16;12.0;;;11.0;;
22673;SDS011;11504;43.334;21.918;2023-10-13T08:26:53;13.0;;;12.0;;
22673;SDS011;11504;43.334;21.918;2023-10-13T08:31:33;13.0;;;12.0;;
22673;SDS011;11504;43.334;21.918;2023-10-13T08:36:09;14.0;;;13.0;;
22673;SDS011;11504;43.334;21.918;2023-10-13T08:40:46;14.0;;;13.0;;
22673;SDS011;11504;43.334;21.918;2023-10-13T08:45:26;14.0;;;13.0;;
22673;SDS011;11504;43.334;21.918;2023-10-13T08:50:08;14.0;;;13.0;;
22673;SDS011;11504;43.334;21.918;2023-10-13T08:54:45;14.0;;;13.0;;
22673;SDS011;11504;43.334;21.918;2023-10-13T08:59:22;14.0;;;13.0;;
22673;SDS011;11504;43.334;21.918;2023-10-13T09:03:59;14.0;;;13.0;;
22673;SDS011;11504;43.334;21.918;2023-10-13T09:08:41;14.0;;;13.0;;
22673;SDS011;11504;43.334;21.918;2023-10-13T09:13:18;14.0;;;13.0;;
22673;SDS011;11504;43.334;21.918;2023-10-13T09:17:54;14.0;;;13.0;;
22673;SDS011;11504;43.334;21.918;2023-10-13T09:22:31;14.0;;;13.0;;
22673;SDS011;11504;43.334;21.918;2023-10-13T09:27:07;16.0;;;15.0;;
22673;SDS011;11504;43.334;21.918;2023-10-13T09:31:46;16.0;;;15.0;;
22673;SDS011;11504;43.334;21.918;2023-10-13T09:36:38;18.0;;;17.0;;
22673;SDS011;11504;43.334;21.918;2023-10-13T09:41:15;18.0;;;17.0;;
22673;SDS011;11504;43.334;21.918;2023-10-13T09:45:53;18.0;;;18.0;;
22673;SDS011;11504;43.334;21.918;2023-10-13T09:50:37;18.0;;;18.0;;
22673;SDS011;11504;43.334;21.918;2023-10-13T09:55:23;19.0;;;18.0;;
22673;SDS011;11504;43.334;21.918;2023-10-13T10:00:19;19.0;;;18.0;;
22673;SDS011;11504;43.334;21.918;2023-10-13T10:05:07;19.0;;;18.0;;
22673;SDS011;11504;43.334;21.918;2023-10-13T10:09:43;19.0;;;18.0;;
22673;SDS011;11504;43.334;21.918;2023-10-13T10:14:40;19.0;;;18.0;;
22673;SDS011;11504;43.334;21.918;2023-10-13T10:20:04;19.0;;;18.0;;
22673;SDS011;11504;43.334;21.918;2023-10-13T10:24:55;19.0;;;18.0;;
22673;SDS011;11504;43.334;21.918;2023-10-13T10:29:35;19.0;;;18.0;;
22673;SDS011;11504;43.334;21.918;2023-10-13T10:34:12;19.0;;;18.0;;
22673;SDS011;11504;43.334;21.918;2023-10-13T10:38:53;19.0;;;18.0;;
22673;SDS011;11504;43.334;21.918;2023-10-13T10:43:36;19.0;;;18.0;;
22673;SDS011;11504;43.334;21.918;2023-10-13T10:48:14;20.0;;;19.0;;
22673;SDS011;11504;43.334;21.918;2023-10-13T10:52:53;20.0;;;19.0;;
22673;SDS011;11504;43.334;21.918;2023-10-13T10:57:30;21.0;;;20.0;;
22673;SDS011;11504;43.334;21.918;2023-10-13T11:02:07;21.0;;;20.0;;
22673;SDS011;11504;43.334;21.918;2023-10-13T11:06:46;20.0;;;20.0;;
22673;SDS011;11504;43.334;21.918;2023-10-13T11:11:32;20.0;;;20.0;;
22673;SDS011;11504;43.334;21.918;2023-10-13T11:16:08;20.0;;;19.0;;
22673;SDS011;11504;43.334;21.918;2023-10-13T11:20:45;20.0;;;19.0;;
22673;SDS011;11504;43.334;21.918;2023-10-13T11:25:24;20.0;;;19.0;;
22673;SDS011;11504;43.334;21.918;2023-10-13T11:30:08;20.0;;;19.0;;
22673;SDS011;11504;43.334;21.918;2023-10-13T11:34:48;20.0;;;19.0;;
22673;SDS011;11504;43.334;21.918;2023-10-13T11:39:25;20.0;;;19.0;;
22673;SDS011;11504;43.334;21.918;2023-10-13T11:48:48;19.0;;;18.0;;
22673;SDS011;11504;43.334;21.918;2023-10-13T11:53:24;19.0;;;18.0;;
22673;SDS011;11504;43.334;21.918;2023-10-13T11:58:01;18.0;;;16.0;;
22673;SDS011;11504;43.334;21.918;2023-10-13T12:02:39;18.0;;;16.0;;
22673;SDS011;11504;43.334;21.918;2023-10-13T12:07:15;18.0;;;16.0;;
22673;SDS011;11504;43.334;21.918;2023-10-13T12:11:52;18.0;;;16.0;;
22673;SDS011;11504;43.334;21.918;2023-10-13T12:16:28;18.0;;;17.0;;
22673;SDS011;11504;43.334;21.918;2023-10-13T12:21:07;18.0;;;17.0;;
22673;SDS011;11504;43.334;21.918;2023-10-13T12:25:44;18.0;;;16.0;;
22673;SDS011;11504;43.334;21.918;2023-10-13T12:30:21;18.0;;;16.0;;
22673;SDS011;11504;43.334;21.918;2023-10-13T12:34:59;17.0;;;16.0;;
22673;SDS011;11504;43.334;21.918;2023-10-13T12:39:35;17.0;;;16.0;;
22673;SDS011;11504;43.334;21.918;2023-10-13T12:44:13;18.0;;;17.0;;
22673;SDS011;11504;43.334;21.918;2023-10-13T12:48:49;18.0;;;17.0;;
22673;SDS011;11504;43.334;21.918;2023-10-13T12:53:25;18.0;;;17.0;;
22673;SDS011;11504;43.334;21.918;2023-10-13T12:58:01;19.0;;;18.0;;
22673;SDS011;11504;43.334;21.918;2023-10-13T13:02:38;19.0;;;18.0;;
22673;SDS011;11504;43.334;21.918;2023-10-13T13:07:14;18.0;;;17.0;;
22673;SDS011;11504;43.334;21.918;2023-10-13T13:11:51;18.0;;;17.0;;
22673;SDS011;11504;43.334;21.918;2023-10-13T13:16:28;17.0;;;16.0;;
22673;SDS011;11504;43.334;21.918;2023-10-13T13:21:05;17.0;;;16.0;;
22673;SDS011;11504;43.334;21.918;2023-10-13T13:25:42;16.0;;;14.0;;
22673;SDS011;11504;43.334;21.918;2023-10-13T13:30:21;16.0;;;14.0;;
22673;SDS011;11504;43.334;21.918;2023-10-13T13:35:00;14.0;;;13.0;;
22673;SDS011;11504;43.334;21.918;2023-10-13T13:39:37;14.0;;;13.0;;
22673;SDS011;11504;43.334;21.918;2023-10-13T13:44:20;13.0;;;12.0;;
22673;SDS011;11504;43.334;21.918;2023-10-13T13:48:56;13.0;;;12.0;;
22673;SDS011;11504;43.334;21.918;2023-10-13T13:53:33;13.0;;;12.0;;
22673;SDS011;11504;43.334;21.918;2023-10-13T13:58:09;12.0;;;11.0;;
22673;SDS011;11504;43.334;21.918;2023-10-13T14:02:45;12.0;;;11.0;;
22673;SDS011;11504;43.334;21.918;2023-10-13T14:07:21;12.0;;;12.0;;
22673;SDS011;11504;43.334;21.918;2023-10-13T14:11:57;12.0;;;12.0;;
22673;SDS011;11504;43.334;21.918;2023-10-13T14:16:34;12.0;;;12.0;;
22673;SDS011;11504;43.334;21.918;2023-10-13T14:21:11;12.0;;;12.0;;
22673;SDS011;11504;43.334;21.918;2023-10-13T14:25:49;12.0;;;12.0;;
22673;SDS011;11504;43.334;21.918;2023-10-13T14:30:26;12.0;;;12.0;;
22673;SDS011;11504;43.334;21.918;2023-10-13T14:35:03;11.0;;;11.0;;
22673;SDS011;11504;43.334;21.918;2023-10-13T14:39:44;11.0;;;11.0;;
22673;SDS011;11504;43.334;21.918;2023-10-13T14:44:20;12.0;;;12.0;;
22673;SDS011;11504;43.334;21.918;2023-10-13T14:48:56;12.0;;;12.0;;
22673;SDS011;11504;43.334;21.918;2023-10-13T14:53:33;12.0;;;12.0;;
22673;SDS011;11504;43.334;21.918;2023-10-13T14:58:10;12.0;;;12.0;;
22673;SDS011;11504;43.334;21.918;2023-10-13T15:02:46;12.0;;;12.0;;
22673;SDS011;11504;43.334;21.918;2023-10-13T15:07:23;12.0;;;12.0;;
22673;SDS011;11504;43.334;21.918;2023-10-13T15:11:59;12.0;;;12.0;;
22673;SDS011;11504;43.334;21.918;2023-10-13T15:16:35;13.0;;;11.0;;
22673;SDS011;11504;43.334;21.918;2023-10-13T15:21:12;13.0;;;11.0;;
22673;SDS011;11504;43.334;21.918;2023-10-13T15:26:02;14.0;;;12.0;;
22673;SDS011;11504;43.334;21.918;2023-10-13T15:30:39;14.0;;;12.0;;
22673;SDS011;11504;43.334;21.918;2023-10-13T15:35:15;14.0;;;13.0;;
22673;SDS011;11504;43.334;21.918;2023-10-13T15:39:53;14.0;;;13.0;;
22673;SDS011;11504;43.334;21.918;2023-10-13T15:44:34;16.0;;;16.0;;
22673;SDS011;11504;43.334;21.918;2023-10-13T15:49:11;16.0;;;16.0;;
22673;SDS011;11504;43.334;21.918;2023-10-13T15:53:47;16.0;;;16.0;;
22673;SDS011;11504;43.334;21.918;2023-10-13T15:58:25;19.0;;;18.0;;
22673;SDS011;11504;43.334;21.918;2023-10-13T16:03:01;19.0;;;18.0;;
22673;SDS011;11504;43.334;21.918;2023-10-13T16:07:41;20.0;;;19.0;;
22673;SDS011;11504;43.334;21.918;2023-10-13T16:12:17;20.0;;;19.0;;
22673;SDS011;11504;43.334;21.918;2023-10-13T16:16:54;21.0;;;20.0;;
22673;SDS011;11504;43.334;21.918;2023-10-13T16:21:31;21.0;;;20.0;;
22673;SDS011;11504;43.334;21.918;2023-10-13T16:26:08;21.0;;;20.0;;
22673;SDS011;11504;43.334;21.918;2023-10-13T16:30:45;21.0;;;20.0;;
22673;SDS011;11504;43.334;21.918;2023-10-13T16:35:21;21.0;;;19.0;;
22673;SDS011;11504;43.334;21.918;2023-10-13T16:39:58;21.0;;;19.0;;
22673;SDS011;11504;43.334;21.918;2023-10-13T16:44:35;19.0;;;18.0;;
22673;SDS011;11504;43.334;21.918;2023-10-13T16:49:11;19.0;;;18.0;;
22673;SDS011;11504;43.334;21.918;2023-10-13T16:53:48;19.0;;;18.0;;
22673;SDS011;11504;43.334;21.918;2023-10-13T16:58:24;17.0;;;16.0;;
22673;SDS011;11504;43.334;21.918;2023-10-13T17:03:00;17.0;;;16.0;;
22673;SDS011;11504;43.334;21.918;2023-10-13T17:07:37;18.0;;;17.0;;
22673;SDS011;11504;43.334;21.918;2023-10-13T17:12:15;18.0;;;17.0;;
22673;SDS011;11504;43.334;21.918;2023-10-13T17:16:51;19.0;;;18.0;;
22673;SDS011;11504;43.334;21.918;2023-10-13T17:21:28;19.0;;;18.0;;
22673;SDS011;11504;43.334;21.918;2023-10-13T17:26:04;20.0;;;20.0;;
22673;SDS011;11504;43.334;21.918;2023-10-13T17:30:40;20.0;;;20.0;;
22673;SDS011;11504;43.334;21.918;2023-10-13T17:35:19;22.0;;;21.0;;
22673;SDS011;11504;43.334;21.918;2023-10-13T17:39:58;22.0;;;21.0;;
22673;SDS011;11504;43.334;21.918;2023-10-13T17:44:36;22.0;;;21.0;;
22673;SDS011;11504;43.334;21.918;2023-10-13T17:49:12;22.0;;;21.0;;
22673;SDS011;11504;43.334;21.918;2023-10-13T17:53:49;22.0;;;21.0;;
22673;SDS011;11504;43.334;21.918;2023-10-13T17:58:25;22.0;;;21.0;;
22673;SDS011;11504;43.334;21.918;2023-10-13T18:03:01;22.0;;;21.0;;
22673;SDS011;11504;43.334;21.918;2023-10-13T18:07:38;22.0;;;21.0;;
22673;SDS011;11504;43.334;21.918;2023-10-13T18:12:16;22.0;;;21.0;;
22673;SDS011;11504;43.334;21.918;2023-10-13T18:16:52;22.0;;;21.0;;
22673;SDS011;11504;43.334;21.918;2023-10-13T18:21:28;22.0;;;21.0;;
22673;SDS011;11504;43.334;21.918;2023-10-13T18:26:05;22.0;;;20.0;;
22673;SDS011;11504;43.334;21.918;2023-10-13T18:30:42;22.0;;;20.0;;
22673;SDS011;11504;43.334;21.918;2023-10-13T18:35:19;21.0;;;20.0;;
22673;SDS011;11504;43.334;21.918;2023-10-13T18:39:59;21.0;;;20.0;;
22673;SDS011;11504;43.334;21.918;2023-10-13T18:44:37;20.0;;;19.0;;
22673;SDS011;11504;43.334;21.918;2023-10-13T18:49:16;20.0;;;19.0;;
22673;SDS011;11504;43.334;21.918;2023-10-13T18:53:53;20.0;;;19.0;;
22673;SDS011;11504;43.334;21.918;2023-10-13T18:58:30;20.0;;;18.0;;
22673;SDS011;11504;43.334;21.918;2023-10-13T19:03:07;20.0;;;18.0;;
22673;SDS011;11504;43.334;21.918;2023-10-13T19:07:44;20.0;;;18.0;;
22673;SDS011;11504;43.334;21.918;2023-10-13T19:12:20;20.0;;;18.0;;
22673;SDS011;11504;43.334;21.918;2023-10-13T19:16:57;19.0;;;18.0;;
22673;SDS011;11504;43.334;21.918;2023-10-13T19:21:33;19.0;;;18.0;;
22673;SDS011;11504;43.334;21.918;2023-10-13T19:26:11;20.0;;;20.0;;
22673;SDS011;11504;43.334;21.918;2023-10-13T19:30:49;20.0;;;20.0;;
22673;SDS011;11504;43.334;21.918;2023-10-13T19:35:26;22.0;;;21.0;;
22673;SDS011;11504;43.334;21.918;2023-10-13T19:40:03;22.0;;;21.0;;
22673;SDS011;11504;43.334;21.918;2023-10-13T19:44:43;20.0;;;19.0;;
22673;SDS011;11504;43.334;21.918;2023-10-13T19:49:19;20.0;;;19.0;;
22673;SDS011;11504;43.334;21.918;2023-10-13T19:53:56;20.0;;;19.0;;
22673;SDS011;11504;43.334;21.918;2023-10-13T19:58:40;19.0;;;17.0;;
22673;SDS011;11504;43.334;21.918;2023-10-13T20:03:16;19.0;;;17.0;;
22673;SDS011;11504;43.334;21.918;2023-10-13T20:07:52;20.0;;;18.0;;
22673;SDS011;11504;43.334;21.918;2023-10-13T20:12:28;20.0;;;18.0;;
22673;SDS011;11504;43.334;21.918;2023-10-13T20:17:05;22.0;;;20.0;;
22673;SDS011;11504;43.334;21.918;2023-10-13T20:21:41;22.0;;;20.0;;
22673;SDS011;11504;43.334;21.918;2023-10-13T20:26:19;20.0;;;19.0;;
22673;SDS011;11504;43.334;21.918;2023-10-13T20:30:59;20.0;;;19.0;;
22673;SDS011;11504;43.334;21.918;2023-10-13T20:35:35;19.0;;;18.0;;
22673;SDS011;11504;43.334;21.918;2023-10-13T20:40:20;19.0;;;18.0;;
22673;SDS011;11504;43.334;21.918;2023-10-13T20:44:56;18.0;;;18.0;;
22673;SDS011;11504;43.334;21.918;2023-10-13T20:49:33;18.0;;;18.0;;
22673;SDS011;11504;43.334;21.918;2023-10-13T20:54:09;18.0;;;18.0;;
22673;SDS011;11504;43.334;21.918;2023-10-13T20:58:46;18.0;;;17.0;;
22673;SDS011;11504;43.334;21.918;2023-10-13T21:03:22;18.0;;;17.0;;
22673;SDS011;11504;43.334;21.918;2023-10-13T21:08:01;18.0;;;16.0;;
22673;SDS011;11504;43.334;21.918;2023-10-13T21:12:40;18.0;;;16.0;;
22673;SDS011;11504;43.334;21.918;2023-10-13T21:17:23;17.0;;;16.0;;
22673;SDS011;11504;43.334;21.918;2023-10-13T21:22:00;17.0;;;16.0;;
22673;SDS011;11504;43.334;21.918;2023-10-13T21:26:36;16.0;;;15.0;;
22673;SDS011;11504;43.334;21.918;2023-10-13T21:31:14;16.0;;;15.0;;
22673;SDS011;11504;43.334;21.918;2023-10-13T21:35:55;15.0;;;14.0;;
22673;SDS011;11504;43.334;21.918;2023-10-13T21:40:32;15.0;;;14.0;;
22673;SDS011;11504;43.334;21.918;2023-10-13T21:45:09;16.0;;;15.0;;
22673;SDS011;11504;43.334;21.918;2023-10-13T21:49:46;16.0;;;15.0;;
22673;SDS011;11504;43.334;21.918;2023-10-13T21:54:23;18.0;;;16.0;;
22673;SDS011;11504;43.334;21.918;2023-10-13T21:59:00;18.0;;;16.0;;
22673;SDS011;11504;43.334;21.918;2023-10-13T22:03:36;18.0;;;16.0;;
22673;SDS011;11504;43.334;21.918;2023-10-13T22:08:13;16.0;;;15.0;;
22673;SDS011;11504;43.334;21.918;2023-10-13T22:12:49;16.0;;;15.0;;
22673;SDS011;11504;43.334;21.918;2023-10-13T22:17:28;15.0;;;14.0;;
22673;SDS011;11504;43.334;21.918;2023-10-13T22:22:08;15.0;;;14.0;;
22673;SDS011;11504;43.334;21.918;2023-10-13T22:26:45;16.0;;;14.0;;
22673;SDS011;11504;43.334;21.918;2023-10-13T22:31:21;16.0;;;14.0;;
22673;SDS011;11504;43.334;21.918;2023-10-13T22:36:00;16.0;;;15.0;;
22673;SDS011;11504;43.334;21.918;2023-10-13T22:40:36;16.0;;;15.0;;
22673;SDS011;11504;43.334;21.918;2023-10-13T22:45:13;16.0;;;15.0;;
22673;SDS011;11504;43.334;21.918;2023-10-13T22:49:54;16.0;;;15.0;;
22673;SDS011;11504;43.334;21.918;2023-10-13T22:54:30;15.0;;;15.0;;
22673;SDS011;11504;43.334;21.918;2023-10-13T22:59:07;15.0;;;15.0;;
22673;SDS011;11504;43.334;21.918;2023-10-13T23:03:44;15.0;;;15.0;;
22673;SDS011;11504;43.334;21.918;2023-10-13T23:08:22;16.0;;;16.0;;
22673;SDS011;11504;43.334;21.918;2023-10-13T23:13:08;16.0;;;16.0;;
22673;SDS011;11504;43.334;21.918;2023-10-13T23:17:44;18.0;;;17.0;;
22673;SDS011;11504;43.334;21.918;2023-10-13T23:22:21;18.0;;;17.0;;
22673;SDS011;11504;43.334;21.918;2023-10-13T23:26:57;17.0;;;16.0;;
22673;SDS011;11504;43.334;21.918;2023-10-13T23:31:33;17.0;;;16.0;;
22673;SDS011;11504;43.334;21.918;2023-10-13T23:36:09;16.0;;;16.0;;
22673;SDS011;11504;43.334;21.918;2023-10-13T23:40:48;16.0;;;16.0;;
22673;SDS011;11504;43.334;21.918;2023-10-13T23:45:25;16.0;;;15.0;;
22673;SDS011;11504;43.334;21.918;2023-10-13T23:50:01;16.0;;;15.0;;
22673;SDS011;11504;43.334;21.918;2023-10-13T23:54:38;15.0;;;14.0;;
22673;SDS011;11504;43.334;21.918;2023-10-13T23:59:15;15.0;;;14.0;;
